createdAt,value
2018-06-13T00:01:48.088Z,4.77
2018-06-13T00:04:16.655Z,4.40
2018-06-13T00:06:45.123Z,5.30
2018-06-13T00:09:13.636Z,4.17
2018-06-13T00:11:42.096Z,5.73
2018-06-13T00:14:11.856Z,4.33
2018-06-13T00:16:40.386Z,4.30
2018-06-13T00:19:08.973Z,4.07
2018-06-13T00:21:37.476Z,5.27
2018-06-13T00:24:06.645Z,4.33
2018-06-13T00:26:35.196Z,5.20
2018-06-13T00:29:03.753Z,4.50
2018-06-13T00:31:32.344Z,4.53
2018-06-13T00:34:00.905Z,5.27
2018-06-13T00:36:29.570Z,4.53
2018-06-13T00:38:58.122Z,4.50
2018-06-13T00:41:29.195Z,4.10
2018-06-13T00:43:57.716Z,4.47
2018-06-13T00:46:26.283Z,4.50
2018-06-13T00:48:54.789Z,4.57
2018-06-13T00:51:23.351Z,4.90
2018-06-13T00:53:51.970Z,4.47
2018-06-13T00:56:30.754Z,4.67
2018-06-13T00:58:59.294Z,4.73
2018-06-13T01:01:27.845Z,4.43
2018-06-13T01:03:56.394Z,4.60
2018-06-13T01:06:24.946Z,4.50
2018-06-13T01:08:53.443Z,4.80
2018-06-13T01:11:22.462Z,4.47
2018-06-13T01:13:50.936Z,5.13
2018-06-13T01:16:19.416Z,4.23
2018-06-13T01:18:47.983Z,4.73
2018-06-13T01:21:16.547Z,4.27
2018-06-13T01:23:45.152Z,4.33
2018-06-13T01:26:13.726Z,4.90
2018-06-13T01:28:42.271Z,5.93
2018-06-13T01:31:10.823Z,5.10
2018-06-13T01:33:39.348Z,5.40
2018-06-13T01:36:07.871Z,5.43
2018-06-13T01:38:37.886Z,5.50
2018-06-13T01:41:06.472Z,5.33
2018-06-13T01:43:35.016Z,5.70
2018-06-13T01:46:03.748Z,5.53
2018-06-13T01:48:32.427Z,5.33
2018-06-13T01:51:00.972Z,5.27
2018-06-13T01:53:30.003Z,5.67
2018-06-13T01:55:58.518Z,6.10
2018-06-13T01:58:27.108Z,5.47
2018-06-13T02:00:55.632Z,5.07
2018-06-13T02:03:24.250Z,5.80
2018-06-13T02:05:52.859Z,5.93
2018-06-13T02:08:21.375Z,6.43
2018-06-13T02:10:49.989Z,5.80
2018-06-13T02:13:18.462Z,5.60
2018-06-13T02:15:46.678Z,6.10
2018-06-13T02:18:15.208Z,5.40
2018-06-13T02:20:43.775Z,5.87
2018-06-13T02:23:12.307Z,5.80
2018-06-13T02:25:40.882Z,5.50
2018-06-13T02:28:11.205Z,5.80
2018-06-13T02:30:41.015Z,5.97
2018-06-13T02:33:09.522Z,5.87
2018-06-13T02:35:38.119Z,4.83
2018-06-13T02:38:06.321Z,4.67
2018-06-13T02:40:34.890Z,4.97
2018-06-13T02:43:03.480Z,5.20
2018-06-13T02:45:32.082Z,4.47
2018-06-13T02:48:00.592Z,4.50
2018-06-13T02:50:29.718Z,4.60
2018-06-13T02:52:58.254Z,4.53
2018-06-13T02:55:26.815Z,4.70
2018-06-13T02:57:55.336Z,4.77
2018-06-13T03:00:23.860Z,4.50
2018-06-13T03:02:52.388Z,4.60
2018-06-13T03:05:21.229Z,4.43
2018-06-13T03:07:50.899Z,4.17
2018-06-13T03:10:19.426Z,4.80
2018-06-13T03:12:48.003Z,4.30
2018-06-13T03:15:16.600Z,3.87
2018-06-13T03:17:45.881Z,4.33
2018-06-13T03:20:14.433Z,4.43
2018-06-13T03:22:43.065Z,4.43
2018-06-13T03:25:12.460Z,4.50
2018-06-13T03:27:43.423Z,4.90
2018-06-13T03:30:13.204Z,4.80
2018-06-13T03:32:41.745Z,4.50
2018-06-13T03:35:09.980Z,5.27
2018-06-13T03:37:38.539Z,5.10
2018-06-13T03:40:07.094Z,4.63
2018-06-13T03:42:35.620Z,5.33
2018-06-13T03:45:04.212Z,5.37
2018-06-13T03:47:32.790Z,4.67
2018-06-13T03:50:01.369Z,5.00
2018-06-13T03:52:29.647Z,5.03
2018-06-13T03:54:59.475Z,4.70
2018-06-13T03:57:27.980Z,4.33
2018-06-13T03:59:56.581Z,4.07
2018-06-13T04:02:25.080Z,5.00
2018-06-13T04:04:53.940Z,4.77
2018-06-13T04:07:22.592Z,4.57
2018-06-13T04:09:51.992Z,15.97
2018-06-13T04:12:20.670Z,19.67
2018-06-13T04:14:49.378Z,19.67
2018-06-13T04:17:18.824Z,11.77
2018-06-13T04:19:47.399Z,6.17
2018-06-13T04:22:16.858Z,5.37
2018-06-13T04:24:46.507Z,9.47
2018-06-13T04:27:16.500Z,8.17
2018-06-13T04:29:45.028Z,8.50
2018-06-13T04:32:13.555Z,6.13
2018-06-13T04:34:42.063Z,8.23
2018-06-13T04:37:10.619Z,15.73
2018-06-13T04:39:39.115Z,10.60
2018-06-13T04:42:08.283Z,7.87
2018-06-13T04:44:36.849Z,7.60
2018-06-13T04:47:05.064Z,6.73
2018-06-13T04:49:33.645Z,6.67
2018-06-13T04:52:02.236Z,7.70
2018-06-13T04:54:30.767Z,9.50
2018-06-13T04:56:59.316Z,9.37
2018-06-13T04:59:27.855Z,7.50
2018-06-13T05:01:56.430Z,6.80
2018-06-13T05:04:24.931Z,7.33
2018-06-13T05:06:53.562Z,6.93
2018-06-13T05:09:22.099Z,6.70
2018-06-13T05:11:50.651Z,6.33
2018-06-13T05:14:19.175Z,6.17
2018-06-13T05:16:47.695Z,6.07
2018-06-13T05:19:16.317Z,5.97
2018-06-13T05:21:44.795Z,6.00
2018-06-13T05:24:13.329Z,6.27
2018-06-13T05:26:41.855Z,5.43
2018-06-13T05:29:10.371Z,5.07
2018-06-13T05:31:38.862Z,5.50
2018-06-13T05:34:07.417Z,5.17
2018-06-13T05:36:35.915Z,5.60
2018-06-13T05:39:06.644Z,5.47
2018-06-13T05:41:35.171Z,5.80
2018-06-13T05:44:03.751Z,5.90
2018-06-13T05:46:32.251Z,6.57
2018-06-13T05:49:00.801Z,6.20
2018-06-13T05:51:29.299Z,6.27
2018-06-13T05:53:57.857Z,6.60
2018-06-13T05:56:26.343Z,8.40
2018-06-13T05:58:55.282Z,8.03
2018-06-13T06:01:23.775Z,10.67
2018-06-13T06:03:52.319Z,9.10
2018-06-13T06:06:20.887Z,9.60
2018-06-13T06:08:49.456Z,11.03
2018-06-13T06:11:18.182Z,10.60
2018-06-13T06:13:46.717Z,15.70
2018-06-13T06:16:15.258Z,15.50
2018-06-13T06:18:43.807Z,14.97
2018-06-13T06:21:12.432Z,14.67
2018-06-13T06:23:41.082Z,15.73
2018-06-13T06:26:09.656Z,19.67
2018-06-13T06:28:38.323Z,19.90
2018-06-13T06:31:06.873Z,21.87
2018-06-13T06:33:35.415Z,22.73
2018-06-13T06:36:03.979Z,22.30
2018-06-13T06:38:32.510Z,21.57
2018-06-13T06:41:01.082Z,21.70
2018-06-13T06:43:29.619Z,20.50
2018-06-13T06:46:02.699Z,21.83
2018-06-13T06:48:31.500Z,22.20
2018-06-13T06:51:00.143Z,24.03
2018-06-13T06:53:28.972Z,21.97
2018-06-13T06:55:57.640Z,24.40
2018-06-13T06:58:26.195Z,24.03
2018-06-13T07:00:54.716Z,24.40
2018-06-13T07:03:23.239Z,23.77
2018-06-13T07:05:51.723Z,24.37
2018-06-13T07:08:20.286Z,24.07
2018-06-13T07:10:48.792Z,24.60
2018-06-13T07:13:17.450Z,25.93
2018-06-13T07:15:45.902Z,25.63
2018-06-13T07:18:14.452Z,24.93
2018-06-13T07:20:42.632Z,26.40
2018-06-13T07:23:11.428Z,26.80
2018-06-13T07:25:39.957Z,25.40
2018-06-13T07:28:08.646Z,26.10
2018-06-13T07:30:37.162Z,27.40
2018-06-13T07:33:05.764Z,27.53
2018-06-13T07:35:34.292Z,25.17
2018-06-13T07:38:02.817Z,23.10
2018-06-13T07:40:31.327Z,22.47
2018-06-13T07:42:59.920Z,22.43
2018-06-13T07:45:28.455Z,21.93
2018-06-13T07:47:56.989Z,21.93
2018-06-13T07:50:25.531Z,21.70
2018-06-13T07:52:54.619Z,21.73
2018-06-13T07:55:23.171Z,21.53
2018-06-13T07:57:51.679Z,20.57
2018-06-13T08:00:20.195Z,20.47
2018-06-13T08:02:48.712Z,20.53
2018-06-13T08:05:17.265Z,20.57
2018-06-13T08:07:45.774Z,20.10
2018-06-13T08:10:14.430Z,18.40
2018-06-13T08:12:42.996Z,15.90
2018-06-13T08:15:11.673Z,15.57
2018-06-13T08:17:40.200Z,14.87
2018-06-13T08:20:08.742Z,16.43
2018-06-13T08:22:37.230Z,16.63
2018-06-13T08:25:05.762Z,17.90
2018-06-13T08:27:34.350Z,17.17
2018-06-13T08:30:03.264Z,16.13
2018-06-13T08:32:31.765Z,18.10
2018-06-13T08:35:00.292Z,17.90
2018-06-13T08:37:28.793Z,16.87
2018-06-13T08:39:57.777Z,16.57
2018-06-13T08:42:26.332Z,16.87
2018-06-13T08:44:55.061Z,16.83
2018-06-13T08:47:23.762Z,17.47
2018-06-13T08:49:52.389Z,15.83
2018-06-13T08:52:21.129Z,15.07
2018-06-13T08:54:49.750Z,13.80
2018-06-13T08:57:18.446Z,15.17
2018-06-13T08:59:47.052Z,13.73
2018-06-13T09:02:15.685Z,12.10
2018-06-13T09:04:44.324Z,12.63
2018-06-13T09:07:12.976Z,13.30
2018-06-13T09:09:41.591Z,14.90
2018-06-13T09:12:10.181Z,13.13
2018-06-13T09:14:38.815Z,14.17
2018-06-13T09:17:08.012Z,13.83
2018-06-13T09:19:36.624Z,14.00
2018-06-13T09:22:05.281Z,13.23
2018-06-13T09:24:33.922Z,13.83
2018-06-13T09:27:02.622Z,14.47
2018-06-13T09:29:31.292Z,13.80
2018-06-13T09:31:59.884Z,15.10
2018-06-13T09:34:28.582Z,14.40
2018-06-13T09:36:57.163Z,15.07
2018-06-13T09:39:25.838Z,15.87
2018-06-13T09:41:59.763Z,15.73
2018-06-13T09:44:28.671Z,15.77
2018-06-13T09:46:57.262Z,17.27
2018-06-13T09:49:25.940Z,17.73
2018-06-13T09:51:54.654Z,19.60
2018-06-13T09:54:22.873Z,19.40
2018-06-13T09:56:51.528Z,18.83
2018-06-13T09:59:20.975Z,20.00
2018-06-13T10:01:55.172Z,18.90
2018-06-13T10:04:23.894Z,18.20
2018-06-13T10:06:52.542Z,17.70
2018-06-13T10:09:22.779Z,17.03
2018-06-13T10:11:51.390Z,19.93
2018-06-13T10:14:20.100Z,17.27
2018-06-13T10:16:48.676Z,16.80
2018-06-13T10:19:17.381Z,18.40
2018-06-13T10:21:45.969Z,18.30
2018-06-13T10:24:14.570Z,18.47
2018-06-13T10:26:43.181Z,17.77
2018-06-13T10:29:11.703Z,18.07
2018-06-13T10:31:40.245Z,15.27
2018-06-13T10:34:08.835Z,17.90
2018-06-13T10:36:37.424Z,17.00
2018-06-13T10:39:07.979Z,16.47
2018-06-13T10:41:36.722Z,16.53
2018-06-13T10:44:05.875Z,16.80
2018-06-13T10:46:34.495Z,15.87
2018-06-13T10:49:03.091Z,18.73
2018-06-13T10:51:31.652Z,18.03
2018-06-13T10:54:00.195Z,19.43
2018-06-13T10:56:28.899Z,19.80
2018-06-13T10:58:57.559Z,18.77
2018-06-13T11:01:26.259Z,17.57
2018-06-13T11:03:54.426Z,16.40
2018-06-13T11:06:23.146Z,17.83
2018-06-13T11:08:51.671Z,18.47
2018-06-13T11:11:20.251Z,18.70
2018-06-13T11:13:48.877Z,18.50
2018-06-13T11:16:17.771Z,17.57
2018-06-13T11:18:46.455Z,17.93
2018-06-13T11:21:15.095Z,18.80
2018-06-13T11:23:43.891Z,17.87
2018-06-13T11:26:12.533Z,19.30
2018-06-13T11:28:41.152Z,20.23
2018-06-13T11:31:09.819Z,18.33
2018-06-13T11:33:38.424Z,17.80
2018-06-13T11:36:07.140Z,17.90
2018-06-13T11:38:35.789Z,16.40
2018-06-13T11:41:04.395Z,17.90
2018-06-13T11:43:33.051Z,16.80
2018-06-13T11:46:01.640Z,16.60
2018-06-13T11:48:30.342Z,16.27
2018-06-13T11:50:58.972Z,15.33
2018-06-13T11:53:27.599Z,15.03
2018-06-13T11:55:56.324Z,14.33
2018-06-13T11:58:24.938Z,14.50
2018-06-13T12:00:53.563Z,15.17
2018-06-13T12:03:22.094Z,15.67
2018-06-13T12:05:50.888Z,17.40
2018-06-13T12:08:19.447Z,16.57
2018-06-13T12:10:48.050Z,16.07
2018-06-13T12:13:16.635Z,14.90
2018-06-13T12:15:45.369Z,14.10
2018-06-13T12:18:14.010Z,15.33
2018-06-13T12:20:42.716Z,15.67
2018-06-13T12:23:11.457Z,15.53
2018-06-13T12:25:40.095Z,16.03
2018-06-13T12:28:08.795Z,14.63
2018-06-13T12:30:37.366Z,15.53
2018-06-13T12:33:06.034Z,15.30
2018-06-13T12:35:34.696Z,14.80
2018-06-13T12:38:03.805Z,14.33
2018-06-13T12:40:32.471Z,14.00
2018-06-13T12:43:00.764Z,15.37
2018-06-13T12:45:29.382Z,15.07
2018-06-13T12:47:58.019Z,15.47
2018-06-13T12:50:26.645Z,15.00
2018-06-13T12:52:56.020Z,14.67
2018-06-13T12:55:24.630Z,16.27
2018-06-13T12:57:53.318Z,14.80
2018-06-13T13:00:21.950Z,14.93
2018-06-13T13:02:50.632Z,15.00
2018-06-13T13:05:19.278Z,14.07
2018-06-13T13:07:47.991Z,15.00
2018-06-13T13:10:16.577Z,16.33
2018-06-13T13:12:45.172Z,15.47
2018-06-13T13:15:13.728Z,14.17
2018-06-13T13:17:43.766Z,13.33
2018-06-13T13:20:12.467Z,14.83
2018-06-13T13:22:40.966Z,13.97
2018-06-13T13:25:09.213Z,14.80
2018-06-13T13:27:37.844Z,15.33
2018-06-13T13:30:06.517Z,15.20
2018-06-13T13:32:35.225Z,14.63
2018-06-13T13:35:04.038Z,15.43
2018-06-13T13:37:32.684Z,14.50
2018-06-13T13:40:01.332Z,14.60
2018-06-13T13:42:29.919Z,14.43
2018-06-13T13:44:58.498Z,13.10
2018-06-13T13:47:27.042Z,14.00
2018-06-13T13:49:55.710Z,14.33
2018-06-13T13:52:24.242Z,14.40
2018-06-13T13:54:52.858Z,15.27
2018-06-13T13:57:21.106Z,14.80
2018-06-13T13:59:49.760Z,13.93
2018-06-13T14:02:18.358Z,14.37
2018-06-13T14:04:47.066Z,14.77
2018-06-13T14:07:15.692Z,13.33
2018-06-13T14:09:44.209Z,13.20
2018-06-13T14:12:12.997Z,13.97
2018-06-13T14:14:41.514Z,13.50
2018-06-13T14:17:10.098Z,14.13
2018-06-13T14:19:38.807Z,14.27
2018-06-13T14:22:07.599Z,13.90
2018-06-13T14:24:36.460Z,14.27
2018-06-13T14:27:05.177Z,13.67
2018-06-13T14:29:33.930Z,13.63
2018-06-13T14:32:02.533Z,13.17
2018-06-13T14:34:31.120Z,13.53
2018-06-13T14:36:59.654Z,12.73
2018-06-13T14:39:28.146Z,12.57
2018-06-13T14:41:56.728Z,12.40
2018-06-13T14:44:25.469Z,11.80
2018-06-13T14:46:54.064Z,11.67
2018-06-13T14:49:22.781Z,11.40
2018-06-13T14:51:53.085Z,11.43
2018-06-13T14:54:21.950Z,11.50
2018-06-13T14:56:50.708Z,11.27
2018-06-13T14:59:18.851Z,10.90
2018-06-13T15:01:47.454Z,11.40
2018-06-13T15:04:20.224Z,10.80
2018-06-13T15:06:48.708Z,10.73
2018-06-13T15:09:17.237Z,10.17
2018-06-13T15:11:45.398Z,10.33
2018-06-13T15:14:13.950Z,9.73
2018-06-13T15:16:42.444Z,10.30
2018-06-13T15:19:11.015Z,9.73
2018-06-13T15:21:39.518Z,10.17
2018-06-13T15:24:08.040Z,10.13
2018-06-13T15:26:36.754Z,10.23
2018-06-13T15:29:05.461Z,9.63
2018-06-13T15:31:33.938Z,10.27
2018-06-13T15:34:02.444Z,9.03
2018-06-13T15:36:30.966Z,9.60
2018-06-13T15:38:59.445Z,8.97
2018-06-13T15:41:27.988Z,9.87
2018-06-13T15:43:56.451Z,8.93
2018-06-13T15:46:24.971Z,9.63
2018-06-13T15:48:53.442Z,9.53
2018-06-13T15:51:21.975Z,9.47
2018-06-13T15:53:50.493Z,8.50
2018-06-13T15:56:19.050Z,9.43
2018-06-13T15:58:47.550Z,9.60
2018-06-13T16:01:16.092Z,9.67
2018-06-13T16:03:44.586Z,9.53
2018-06-13T16:06:13.152Z,9.43
2018-06-13T16:08:41.678Z,9.43
2018-06-13T16:11:10.161Z,8.73
2018-06-13T16:13:38.640Z,9.10
2018-06-13T16:16:07.211Z,9.00
2018-06-13T16:18:35.703Z,9.07
2018-06-13T16:21:04.302Z,9.00
2018-06-13T16:23:32.812Z,10.37
2018-06-13T16:26:01.460Z,9.20
2018-06-13T16:28:29.972Z,9.30
2018-06-13T16:30:58.447Z,8.87
2018-06-13T16:33:26.647Z,9.10
2018-06-13T16:35:55.182Z,9.47
2018-06-13T16:38:23.680Z,9.33
2018-06-13T16:40:52.190Z,9.43
2018-06-13T16:43:20.742Z,9.37
2018-06-13T16:45:49.210Z,9.13
2018-06-13T16:48:17.959Z,8.93
2018-06-13T16:50:57.599Z,8.43
2018-06-13T16:53:55.178Z,8.43
2018-06-13T16:56:23.740Z,8.47
2018-06-13T16:58:52.352Z,8.13
2018-06-13T17:01:21.222Z,8.20
2018-06-13T17:03:49.788Z,8.30
2018-06-13T17:06:18.289Z,8.03
2018-06-13T17:08:46.862Z,7.77
2018-06-13T17:11:15.402Z,7.73
2018-06-13T17:13:44.047Z,7.97
2018-06-13T17:16:12.539Z,8.13
2018-06-13T17:18:41.016Z,7.27
2018-06-13T17:21:11.595Z,8.00
2018-06-13T17:23:40.104Z,7.37
2018-06-13T17:26:08.677Z,7.30
2018-06-13T17:28:37.190Z,7.23
2018-06-13T17:31:05.699Z,6.53
2018-06-13T17:33:34.175Z,6.50
2018-06-13T17:36:02.729Z,4.90
2018-06-13T17:38:31.242Z,5.80
2018-06-13T17:40:59.734Z,5.53
2018-06-13T17:43:28.204Z,5.73
2018-06-13T17:45:57.321Z,6.57
2018-06-13T17:48:25.853Z,5.73
2018-06-13T17:50:54.358Z,6.70
2018-06-13T17:53:22.850Z,6.80
2018-06-13T17:55:51.367Z,6.00
2018-06-13T17:58:19.862Z,6.17
2018-06-13T18:00:48.422Z,6.60
2018-06-13T18:03:16.914Z,6.90
2018-06-13T18:05:47.195Z,6.77
2018-06-13T18:08:15.730Z,6.20
2018-06-13T18:10:46.592Z,6.77
2018-06-13T18:13:15.186Z,6.70
2018-06-13T18:15:43.668Z,6.77
2018-06-13T18:18:12.230Z,6.63
2018-06-13T18:20:40.738Z,7.03
2018-06-13T18:23:09.278Z,7.00
2018-06-13T18:25:37.746Z,6.63
2018-06-13T18:28:06.438Z,6.50
2018-06-13T18:30:34.946Z,6.33
2018-06-13T18:33:03.475Z,5.93
2018-06-13T18:35:31.980Z,5.37
2018-06-13T18:38:00.572Z,5.67
2018-06-13T18:40:29.069Z,5.13
2018-06-13T18:42:57.771Z,5.07
2018-06-13T18:45:26.321Z,4.93
2018-06-13T18:47:54.821Z,5.03
2018-06-13T18:50:25.071Z,5.27
2018-06-13T18:52:53.859Z,5.53
2018-06-13T18:55:22.695Z,5.43
2018-06-13T18:57:51.206Z,5.00
2018-06-13T19:00:19.695Z,5.33
2018-06-13T19:02:48.155Z,6.40
2018-06-13T19:05:16.757Z,6.97
2018-06-13T19:07:45.255Z,8.00
2018-06-13T19:10:14.934Z,9.10
2018-06-13T19:12:43.476Z,9.87
2018-06-13T19:15:12.048Z,11.07
2018-06-13T19:17:40.561Z,11.10
2018-06-13T19:20:10.861Z,11.07
2018-06-13T19:22:39.367Z,10.40
2018-06-13T19:25:07.879Z,11.67
2018-06-13T19:27:36.394Z,11.67
2018-06-13T19:30:05.582Z,11.43
2018-06-13T19:32:37.014Z,11.37
2018-06-13T19:35:05.558Z,11.43
2018-06-13T19:37:34.145Z,11.80
2018-06-13T19:40:02.624Z,12.30
2018-06-13T19:42:31.159Z,12.70
2018-06-13T19:44:59.665Z,12.03
2018-06-13T19:47:33.572Z,11.43
2018-06-13T19:50:02.079Z,11.37
2018-06-13T19:52:35.876Z,11.43
2018-06-13T19:55:09.703Z,11.17
2018-06-13T19:57:38.230Z,11.43
2018-06-13T20:00:06.751Z,11.23
2018-06-13T20:02:40.631Z,11.13
2018-06-13T20:05:14.462Z,11.80
2018-06-13T20:07:43.026Z,11.33
2018-06-13T20:10:11.570Z,11.77
2018-06-13T20:12:45.438Z,11.07
2018-06-13T20:15:19.283Z,11.57
2018-06-13T20:17:53.062Z,11.17
2018-06-13T20:20:21.579Z,11.20
2018-06-13T20:22:50.152Z,11.93
2018-06-13T20:25:24.266Z,12.00
2018-06-13T20:27:58.123Z,11.83
2018-06-13T20:30:31.930Z,11.97
2018-06-13T20:33:00.565Z,12.23
2018-06-13T20:35:29.026Z,11.83
2018-06-13T20:37:57.563Z,12.73
2018-06-13T20:40:26.076Z,13.03
2018-06-13T20:42:54.592Z,12.03
2018-06-13T20:45:23.169Z,11.57
2018-06-13T20:47:51.837Z,12.40
2018-06-13T20:50:20.476Z,12.50
2018-06-13T20:52:49.028Z,12.77
2018-06-13T20:55:17.589Z,11.30
2018-06-13T20:57:46.076Z,12.00
2018-06-13T21:00:14.614Z,10.97
2018-06-13T21:02:43.114Z,10.87
2018-06-13T21:05:11.610Z,9.27
2018-06-13T21:07:40.326Z,8.40
2018-06-13T21:10:08.911Z,7.83
2018-06-13T21:12:37.414Z,7.83
2018-06-13T21:15:06.000Z,7.63
2018-06-13T21:17:34.677Z,6.60
2018-06-13T21:20:03.552Z,6.97
2018-06-13T21:22:32.069Z,8.10
2018-06-13T21:25:00.540Z,8.03
2018-06-13T21:27:29.078Z,9.07
2018-06-13T21:29:57.621Z,9.57
2018-06-13T21:32:26.224Z,10.07
2018-06-13T21:34:54.925Z,9.63
2018-06-13T21:37:23.502Z,10.57
2018-06-13T21:39:54.905Z,9.83
2018-06-13T21:42:23.430Z,10.53
2018-06-13T21:44:51.932Z,10.67
2018-06-13T21:47:20.522Z,9.90
2018-06-13T21:49:49.370Z,9.90
2018-06-13T21:52:17.918Z,10.30
2018-06-13T21:54:46.427Z,10.27
2018-06-13T21:57:15.031Z,10.20
2018-06-13T21:59:43.527Z,10.40
2018-06-13T22:02:11.995Z,9.93
2018-06-13T22:04:40.537Z,10.17
2018-06-13T22:07:09.013Z,9.83
2018-06-13T22:09:37.539Z,9.97
2018-06-13T22:12:06.042Z,9.87
2018-06-13T22:14:34.546Z,9.90
2018-06-13T22:17:03.071Z,9.53
2018-06-13T22:19:31.595Z,9.80
2018-06-13T22:22:00.088Z,9.93
2018-06-13T22:24:28.684Z,9.37
2018-06-13T22:26:57.149Z,8.70
2018-06-13T22:29:25.699Z,9.23
2018-06-13T22:31:54.158Z,8.70
2018-06-13T22:34:22.682Z,8.80
2018-06-13T22:36:51.178Z,7.93
2018-06-13T22:39:19.775Z,8.83
2018-06-13T22:41:48.864Z,7.07
2018-06-13T22:44:17.323Z,8.07
2018-06-13T22:46:45.862Z,7.40
2018-06-13T22:49:14.315Z,7.27
2018-06-13T22:51:42.823Z,6.90
2018-06-13T22:54:11.355Z,7.60
2018-06-13T22:56:42.231Z,6.70
2018-06-13T22:59:10.723Z,6.23
2018-06-13T23:01:39.210Z,7.20
2018-06-13T23:04:07.687Z,6.87
2018-06-13T23:06:36.193Z,6.20
2018-06-13T23:09:06.963Z,6.17
2018-06-13T23:11:35.755Z,6.57
2018-06-13T23:14:04.241Z,6.20
2018-06-13T23:16:32.731Z,6.60
2018-06-13T23:19:01.231Z,5.73
2018-06-13T23:21:29.727Z,6.73
2018-06-13T23:23:58.183Z,6.30
2018-06-13T23:26:26.661Z,6.40
2018-06-13T23:28:55.170Z,6.47
2018-06-13T23:31:23.691Z,7.60
2018-06-13T23:33:52.187Z,6.43
2018-06-13T23:36:20.343Z,6.87
2018-06-13T23:38:48.877Z,6.60
2018-06-13T23:41:17.948Z,7.13
2018-06-13T23:43:46.443Z,6.43
2018-06-13T23:46:14.993Z,6.50
2018-06-13T23:48:43.457Z,6.67
2018-06-13T23:51:11.955Z,6.60
2018-06-13T23:53:40.464Z,6.43
2018-06-13T23:56:09.459Z,6.10
2018-06-13T23:58:38.219Z,6.23
